createdAt,value
2022-08-15T00:00:46.001Z,34.76
2022-08-15T00:01:44.025Z,34.69
2022-08-15T00:03:00.337Z,34.75
2022-08-15T00:04:02.466Z,34.97
2022-08-15T00:04:56.256Z,34.93
2022-08-15T00:05:47.485Z,35.10
2022-08-15T00:06:42.765Z,35.42
2022-08-15T00:07:45.976Z,35.49
2022-08-15T00:08:50.534Z,35.34
2022-08-15T00:09:54.589Z,35.42
2022-08-15T00:11:02.389Z,35.55
2022-08-15T00:11:57.645Z,35.28
2022-08-15T00:12:49.488Z,34.96
2022-08-15T00:13:42.740Z,34.91
2022-08-15T00:14:35.595Z,34.91
2022-08-15T00:15:34.568Z,34.81
2022-08-15T00:16:25.527Z,34.77
2022-08-15T00:17:16.950Z,34.79
2022-08-15T00:18:08.861Z,35.11
2022-08-15T00:19:02.565Z,35.17
2022-08-15T00:19:53.892Z,34.89
2022-08-15T00:20:50.062Z,34.85
2022-08-15T00:21:45.211Z,35.24
2022-08-15T00:22:56.425Z,35.06
2022-08-15T00:23:46.953Z,34.99
2022-08-15T00:24:39.667Z,34.93
2022-08-15T00:28:56.557Z,35.01
2022-08-15T00:29:47.898Z,35.18
2022-08-15T00:30:50.680Z,35.08
2022-08-15T00:31:48.744Z,35.14
2022-08-15T00:33:03.583Z,35.21
2022-08-15T00:33:49.602Z,35.30
2022-08-15T00:34:41.022Z,35.40
2022-08-15T00:35:40.587Z,35.23
2022-08-15T00:36:51.818Z,35.08
2022-08-15T00:38:11.742Z,35.24
2022-08-15T00:38:53.203Z,35.07
2022-08-15T00:39:44.279Z,35.21
2022-08-15T00:40:56.638Z,35.45
2022-08-15T00:41:53.526Z,35.26
2022-08-15T00:42:46.619Z,35.19
2022-08-15T00:43:48.316Z,35.68
2022-08-15T00:44:52.483Z,35.71
2022-08-15T00:45:56.065Z,35.97
2022-08-15T00:46:56.810Z,36.37
2022-08-15T00:48:07.816Z,36.30
2022-08-15T00:48:58.659Z,36.24
2022-08-15T00:50:02.698Z,36.13
2022-08-15T00:51:16.514Z,36.50
2022-08-15T00:52:26.762Z,36.41
2022-08-15T00:53:17.869Z,36.42
2022-08-15T00:54:55.901Z,36.58
2022-08-15T00:55:41.267Z,36.58
2022-08-15T00:56:35.691Z,36.46
2022-08-15T00:57:58.618Z,36.48
2022-08-15T00:58:55.878Z,36.47
2022-08-15T00:59:55.775Z,36.04
2022-08-15T01:00:48.210Z,36.01
2022-08-15T01:01:41.899Z,36.35
2022-08-15T01:02:35.632Z,36.34
2022-08-15T01:03:32.005Z,36.58
2022-08-15T01:04:35.131Z,36.55
2022-08-15T01:05:34.900Z,36.55
2022-08-15T01:06:28.582Z,36.36
2022-08-15T01:07:24.172Z,36.38
2022-08-15T01:08:19.308Z,36.43
2022-08-15T01:09:19.113Z,36.41
2022-08-15T01:10:19.802Z,36.51
2022-08-15T01:14:05.701Z,35.78
2022-08-15T01:14:55.652Z,35.59
2022-08-15T01:15:47.831Z,35.61
2022-08-15T01:16:42.630Z,35.57
2022-08-15T01:17:33.380Z,35.73
2022-08-15T01:18:34.544Z,35.84
2022-08-15T01:19:35.419Z,35.57
2022-08-15T01:20:29.663Z,35.77
2022-08-15T01:21:33.036Z,35.79
2022-08-15T01:22:54.186Z,36.00
2022-08-15T01:24:15.494Z,36.20
2022-08-15T01:25:26.994Z,36.08
2022-08-15T01:26:38.327Z,35.72
2022-08-15T01:27:42.506Z,35.61
2022-08-15T01:28:40.299Z,35.61
2022-08-15T01:29:36.193Z,35.67
2022-08-15T01:31:01.113Z,35.56
2022-08-15T01:31:48.713Z,35.52
2022-08-15T01:32:40.196Z,35.64
2022-08-15T01:33:37.340Z,35.92
2022-08-15T01:34:47.907Z,35.79
2022-08-15T01:35:42.395Z,35.74
2022-08-15T01:36:34.400Z,35.84
2022-08-15T01:37:25.645Z,35.86
2022-08-15T01:39:05.956Z,36.13
2022-08-15T01:39:59.528Z,36.03
2022-08-15T01:41:06.276Z,35.84
2022-08-15T01:42:33.451Z,35.66
2022-08-15T01:43:31.625Z,35.54
2022-08-15T01:44:31.352Z,35.60
2022-08-15T01:45:27.447Z,35.71
2022-08-15T01:46:21.725Z,35.73
2022-08-15T01:47:30.350Z,35.61
2022-08-15T01:48:27.047Z,35.76
2022-08-15T01:49:25.121Z,35.88
2022-08-15T01:50:26.223Z,35.75
2022-08-15T01:51:21.692Z,35.62
2022-08-15T01:52:58.812Z,35.63
2022-08-15T01:53:45.557Z,35.66
2022-08-15T01:55:03.204Z,35.75
2022-08-15T01:55:56.552Z,35.71
2022-08-15T01:56:47.387Z,35.94
2022-08-15T01:57:38.185Z,35.72
2022-08-15T01:58:31.401Z,35.79
2022-08-15T01:59:23.465Z,35.83
2022-08-15T02:00:17.952Z,35.73
2022-08-15T02:01:15.257Z,35.78
2022-08-15T02:02:39.657Z,35.85
2022-08-15T02:03:21.107Z,35.79
2022-08-15T02:04:24.092Z,35.82
2022-08-15T02:05:16.157Z,35.80
2022-08-15T02:06:13.100Z,35.87
2022-08-15T02:07:10.082Z,35.83
2022-08-15T02:08:34.838Z,35.78
2022-08-15T02:09:39.027Z,35.99
2022-08-15T02:10:33.416Z,35.88
2022-08-15T02:11:26.662Z,35.83
2022-08-15T02:13:02.689Z,35.84
2022-08-15T02:13:48.245Z,36.02
2022-08-15T02:14:42.401Z,36.04
2022-08-15T02:15:35.479Z,36.12
2022-08-15T02:16:31.872Z,36.02
2022-08-15T02:17:22.735Z,36.05
2022-08-15T02:18:19.420Z,35.94
2022-08-15T02:19:12.591Z,35.96
2022-08-15T02:20:23.979Z,36.02
2022-08-15T02:21:17.656Z,36.02
2022-08-15T02:22:25.374Z,35.97
2022-08-15T02:23:20.256Z,36.12
2022-08-15T02:24:20.807Z,36.45
2022-08-15T02:25:12.880Z,36.24
2022-08-15T02:26:12.970Z,36.14
2022-08-15T02:27:03.680Z,36.19
2022-08-15T02:27:56.928Z,36.09
2022-08-15T02:28:49.792Z,36.14
2022-08-15T02:29:52.665Z,36.18
2022-08-15T02:30:44.520Z,36.10
2022-08-15T02:31:35.243Z,36.07
2022-08-15T02:32:30.820Z,36.09
2022-08-15T02:33:31.008Z,36.18
2022-08-15T02:34:44.829Z,36.18
2022-08-15T02:35:38.976Z,36.11
2022-08-15T02:36:52.503Z,36.32
2022-08-15T02:37:57.876Z,36.19
2022-08-15T02:38:50.414Z,36.11
2022-08-15T02:39:42.153Z,36.42
2022-08-15T02:40:44.263Z,36.31
2022-08-15T02:41:45.093Z,36.65
2022-08-15T02:42:38.315Z,36.85
2022-08-15T02:43:30.547Z,36.42
2022-08-15T02:44:23.237Z,36.33
2022-08-15T02:45:14.640Z,36.32
2022-08-15T02:46:29.206Z,36.27
2022-08-15T02:47:16.827Z,36.32
2022-08-15T02:48:28.012Z,36.38
2022-08-15T02:49:20.572Z,36.20
2022-08-15T02:50:12.422Z,36.32
2022-08-15T02:51:02.967Z,36.22
2022-08-15T02:51:54.486Z,36.22
2022-08-15T02:52:48.609Z,36.23
2022-08-15T02:53:49.160Z,36.30
2022-08-15T02:55:01.749Z,36.30
2022-08-15T02:55:53.255Z,36.35
2022-08-15T02:56:45.830Z,36.32
2022-08-15T02:57:59.218Z,36.36
2022-08-15T02:58:47.368Z,36.46
2022-08-15T02:59:38.569Z,36.29
2022-08-15T03:00:30.200Z,36.45
2022-08-15T03:01:23.788Z,36.42
2022-08-15T03:02:29.750Z,36.41
2022-08-15T03:03:22.299Z,36.34
2022-08-15T03:04:28.775Z,36.43
2022-08-15T03:05:19.928Z,36.56
2022-08-15T03:06:16.490Z,36.66
2022-08-15T03:07:22.622Z,36.65
2022-08-15T03:08:13.246Z,36.99
2022-08-15T03:09:08.697Z,36.57
2022-08-15T03:10:00.537Z,36.62
2022-08-15T03:10:53.816Z,36.56
2022-08-15T03:11:57.240Z,36.66
2022-08-15T03:12:57.162Z,36.68
2022-08-15T03:13:50.269Z,36.57
2022-08-15T03:14:41.003Z,36.54
2022-08-15T03:15:39.333Z,36.50
2022-08-15T03:16:33.145Z,36.75
2022-08-15T03:17:26.706Z,36.74
2022-08-15T03:18:30.935Z,36.70
2022-08-15T03:19:26.403Z,36.59
2022-08-15T03:20:18.035Z,36.75
2022-08-15T03:21:13.772Z,36.67
2022-08-15T03:22:06.769Z,36.78
2022-08-15T03:22:57.238Z,36.61
2022-08-15T03:23:51.171Z,36.68
2022-08-15T03:24:44.087Z,36.70
2022-08-15T03:25:48.962Z,36.84
2022-08-15T03:26:48.770Z,36.66
2022-08-15T03:27:40.544Z,36.58
2022-08-15T03:28:32.950Z,36.66
2022-08-15T03:29:25.124Z,36.70
2022-08-15T03:30:25.473Z,36.58
2022-08-15T03:31:16.369Z,36.87
2022-08-15T03:32:14.244Z,36.83
2022-08-15T03:33:32.540Z,36.73
2022-08-15T03:34:35.243Z,36.90
2022-08-15T03:35:30.119Z,36.96
2022-08-15T03:36:23.508Z,37.52
2022-08-15T03:37:15.600Z,37.40
2022-08-15T03:38:07.953Z,36.94
2022-08-15T03:38:59.860Z,37.04
2022-08-15T03:39:51.726Z,37.15
2022-08-15T03:40:44.443Z,36.86
2022-08-15T03:41:40.919Z,37.01
2022-08-15T03:42:36.797Z,37.71
2022-08-15T03:43:38.403Z,37.19
2022-08-15T03:44:41.590Z,37.14
2022-08-15T03:45:37.981Z,36.95
2022-08-15T03:46:33.216Z,36.97
2022-08-15T03:47:24.437Z,36.92
2022-08-15T03:48:20.341Z,37.58
2022-08-15T03:50:25.047Z,37.76
2022-08-15T03:50:42.959Z,37.19
2022-08-15T03:51:36.641Z,37.10
2022-08-15T03:52:33.186Z,37.16
2022-08-15T03:53:24.873Z,37.15
2022-08-15T03:54:25.702Z,36.98
2022-08-15T03:55:18.087Z,37.14
2022-08-15T03:56:09.521Z,36.98
2022-08-15T03:57:00.434Z,37.04
2022-08-15T03:58:02.785Z,36.96
2022-08-15T03:58:55.175Z,37.15
2022-08-15T03:59:46.599Z,37.08
2022-08-15T04:00:52.144Z,37.02
2022-08-15T04:01:44.456Z,37.06
2022-08-15T04:02:38.334Z,37.11
2022-08-15T04:03:34.958Z,36.97
2022-08-15T04:04:25.802Z,37.64
2022-08-15T04:05:17.035Z,37.98
2022-08-15T04:06:17.043Z,38.20
2022-08-15T04:07:23.553Z,37.70
2022-08-15T04:09:02.948Z,37.32
2022-08-15T04:09:30.038Z,37.22
2022-08-15T04:10:36.636Z,37.22
2022-08-15T04:11:35.066Z,37.21
2022-08-15T04:12:30.978Z,37.05
2022-08-15T04:13:25.838Z,37.23
2022-08-15T04:14:32.377Z,37.08
2022-08-15T04:15:24.547Z,37.64
2022-08-15T04:17:03.086Z,37.69
2022-08-15T04:17:57.025Z,38.20
2022-08-15T04:18:44.212Z,37.51
2022-08-15T04:19:47.717Z,37.93
2022-08-15T04:20:39.797Z,37.51
2022-08-15T04:21:34.467Z,37.44
2022-08-15T04:22:54.035Z,37.35
2022-08-15T04:23:46.450Z,37.95
2022-08-15T04:24:37.926Z,38.17
2022-08-15T04:25:38.705Z,38.10
2022-08-15T04:26:51.913Z,37.90
2022-08-15T04:27:46.740Z,37.53
2022-08-15T04:28:54.431Z,37.39
2022-08-15T04:29:46.941Z,38.46
2022-08-15T04:30:40.445Z,38.76
2022-08-15T04:31:35.192Z,38.05
2022-08-15T04:32:28.959Z,38.19
2022-08-15T04:34:44.805Z,38.31
2022-08-15T04:34:48.675Z,38.53
2022-08-15T04:35:47.782Z,39.18
2022-08-15T04:36:38.230Z,39.08
2022-08-15T04:37:33.208Z,38.79
2022-08-15T04:38:24.542Z,38.95
2022-08-15T04:39:15.130Z,38.90
2022-08-15T04:41:19.257Z,38.53
2022-08-15T04:41:35.721Z,38.79
2022-08-15T04:42:27.308Z,38.50
2022-08-15T04:43:21.080Z,38.87
2022-08-15T04:44:17.422Z,38.87
2022-08-15T04:45:13.378Z,38.92
2022-08-15T04:46:04.413Z,38.95
2022-08-15T04:46:56.647Z,38.87
2022-08-15T04:47:48.991Z,38.35
2022-08-15T04:48:42.981Z,38.63
2022-08-15T04:49:34.085Z,39.10
2022-08-15T04:50:25.580Z,38.93
2022-08-15T04:51:19.636Z,39.26
2022-08-15T04:52:13.322Z,39.18
2022-08-15T04:53:04.375Z,39.19
2022-08-15T04:53:57.094Z,39.34
2022-08-15T04:54:58.749Z,39.46
2022-08-15T04:55:51.406Z,39.21
2022-08-15T04:56:51.732Z,39.50
2022-08-15T04:57:44.489Z,39.38
2022-08-15T04:58:41.482Z,39.29
2022-08-15T04:59:38.347Z,39.01
2022-08-15T05:00:52.216Z,39.33
2022-08-15T05:02:04.093Z,39.19
2022-08-15T05:03:54.503Z,39.37
2022-08-15T05:04:46.217Z,39.71
2022-08-15T05:06:01.733Z,39.69
2022-08-15T05:07:17.153Z,39.48
2022-08-15T05:08:14.569Z,39.61
2022-08-15T05:09:06.010Z,39.50
2022-08-15T05:10:00.077Z,39.67
2022-08-15T05:10:58.198Z,39.78
2022-08-15T05:12:00.863Z,39.63
2022-08-15T05:13:11.867Z,39.61
2022-08-15T05:14:02.939Z,39.67
2022-08-15T05:14:54.003Z,39.38
2022-08-15T05:15:53.818Z,39.71
2022-08-15T05:16:45.015Z,39.55
2022-08-15T05:17:56.853Z,39.71
2022-08-15T05:18:46.893Z,39.81
2022-08-15T05:19:37.753Z,39.78
2022-08-15T05:20:28.016Z,39.77
2022-08-15T05:21:19.627Z,39.90
2022-08-15T05:22:36.760Z,39.90
2022-08-15T05:23:33.975Z,39.94
2022-08-15T05:24:33.874Z,39.77
2022-08-15T05:25:27.088Z,39.96
2022-08-15T05:26:53.479Z,39.92
2022-08-15T05:27:35.005Z,40.07
2022-08-15T05:28:29.941Z,40.15
2022-08-15T05:29:24.177Z,39.94
2022-08-15T05:30:18.301Z,39.88
2022-08-15T05:31:13.496Z,39.87
2022-08-15T05:32:07.921Z,39.83
2022-08-15T05:33:10.368Z,39.95
2022-08-15T05:34:02.420Z,39.90
2022-08-15T05:34:55.520Z,39.81
2022-08-15T05:35:53.986Z,40.21
2022-08-15T05:36:45.512Z,40.19
2022-08-15T05:37:42.089Z,40.23
2022-08-15T05:38:39.052Z,40.36
2022-08-15T05:39:35.109Z,40.25
2022-08-15T05:40:26.973Z,40.63
2022-08-15T05:41:30.329Z,40.51
2022-08-15T05:42:43.547Z,40.42
2022-08-15T05:43:53.142Z,40.30
2022-08-15T05:44:46.818Z,39.85
2022-08-15T05:45:43.043Z,40.53
2022-08-15T05:47:31.671Z,40.18
2022-08-15T05:48:36.124Z,40.14
2022-08-15T05:49:51.503Z,40.21
2022-08-15T05:51:00.145Z,40.51
2022-08-15T05:52:34.504Z,40.52
2022-08-15T05:53:44.336Z,40.48
2022-08-15T05:54:58.831Z,40.47
2022-08-15T05:56:07.895Z,40.74
2022-08-15T05:57:21.313Z,40.68
2022-08-15T06:41:24.791Z,39.76
2022-08-15T06:42:36.981Z,39.73
2022-08-15T06:43:27.230Z,39.68
2022-08-15T06:47:40.042Z,39.61
2022-08-15T06:50:55.558Z,39.51
2022-08-15T06:51:46.475Z,39.55
2022-08-15T06:52:37.140Z,39.59
2022-08-15T06:53:31.832Z,39.54
2022-08-15T06:54:36.970Z,39.57
2022-08-15T06:55:37.089Z,39.55
2022-08-15T06:56:39.548Z,39.67
2022-08-15T06:57:45.086Z,39.64
2022-08-15T06:58:54.848Z,39.71
2022-08-15T07:00:09.510Z,39.72
2022-08-15T07:02:12.406Z,39.68
2022-08-15T07:02:51.136Z,39.75
2022-08-15T07:03:53.703Z,39.71
2022-08-15T07:05:25.306Z,39.76
2022-08-15T07:06:22.547Z,39.76
2022-08-15T07:07:36.370Z,39.75
2022-08-15T07:08:45.693Z,39.88
2022-08-15T07:09:53.806Z,39.88
2022-08-15T07:11:00.055Z,39.86
2022-08-15T07:43:27.055Z,40.34
2022-08-15T07:44:28.979Z,40.36
2022-08-15T07:45:26.943Z,40.37
2022-08-15T07:46:37.982Z,40.32
2022-08-15T07:47:59.767Z,40.35
2022-08-15T07:48:59.943Z,40.32
2022-08-15T07:50:32.790Z,40.33
2022-08-15T07:51:31.140Z,40.28
2022-08-15T07:53:38.109Z,40.30
2022-08-15T07:54:34.828Z,40.21
2022-08-15T07:56:59.268Z,40.37
2022-08-15T07:58:24.084Z,40.27
2022-08-15T07:59:25.952Z,40.36
2022-08-15T08:00:45.258Z,40.38
2022-08-15T08:01:35.383Z,40.49
2022-08-15T08:02:37.305Z,40.43
2022-08-15T08:03:33.751Z,40.48
2022-08-15T08:04:29.358Z,40.37
2022-08-15T08:06:35.039Z,40.42
2022-08-15T08:07:51.721Z,40.34
2022-08-15T08:08:49.550Z,40.28
2022-08-15T08:09:43.618Z,40.24
2022-08-15T08:10:35.287Z,40.32
2022-08-15T08:11:46.665Z,40.28
2022-08-15T08:12:57.372Z,40.44
2022-08-15T08:14:39.246Z,40.50
2022-08-15T08:15:59.736Z,40.46
2022-08-15T08:17:11.009Z,40.49
2022-08-15T08:18:04.367Z,40.38
2022-08-15T08:18:55.715Z,40.43
2022-08-15T08:19:56.986Z,40.45
2022-08-15T08:20:57.730Z,40.47
2022-08-15T08:22:21.727Z,40.56
2022-08-15T08:23:31.274Z,40.52
2022-08-15T08:24:33.417Z,40.60
2022-08-15T08:26:03.681Z,40.55
2022-08-15T08:26:59.121Z,40.61
2022-08-15T08:28:23.358Z,40.66
2022-08-15T09:00:41.853Z,40.73
2022-08-15T09:01:34.567Z,40.66
2022-08-15T09:02:51.588Z,40.67
2022-08-15T09:03:50.654Z,40.74
2022-08-15T09:04:49.001Z,40.62
2022-08-15T09:05:58.825Z,40.63
2022-08-15T09:06:49.833Z,40.63
2022-08-15T09:07:45.444Z,40.61
2022-08-15T09:08:52.407Z,40.63
2022-08-15T09:09:45.639Z,40.76
2022-08-15T09:10:36.400Z,40.62
2022-08-15T09:11:36.758Z,40.55
2022-08-15T09:13:01.316Z,40.73
2022-08-15T09:13:55.652Z,40.52
2022-08-15T09:14:59.813Z,40.51
2022-08-15T09:15:54.633Z,40.66
2022-08-15T09:16:45.776Z,40.53
2022-08-15T09:17:36.923Z,40.40
2022-08-15T09:19:01.125Z,40.43
2022-08-15T09:20:12.028Z,40.27
2022-08-15T09:21:10.191Z,40.17
2022-08-15T09:22:00.786Z,40.08
2022-08-15T09:22:54.539Z,39.94
2022-08-15T09:23:47.010Z,39.87
2022-08-15T09:25:06.162Z,39.78
2022-08-15T09:25:59.911Z,39.73
2022-08-15T09:27:07.901Z,39.59
2022-08-15T09:28:40.575Z,39.63
2022-08-15T09:29:36.526Z,39.69
2022-08-15T09:30:45.854Z,39.66
2022-08-15T09:31:40.810Z,39.65
2022-08-15T09:33:00.310Z,39.68
2022-08-15T09:33:57.262Z,39.68
2022-08-15T09:34:59.567Z,39.75
2022-08-15T09:35:54.154Z,39.65
2022-08-15T09:37:10.877Z,39.57
2022-08-15T09:38:25.475Z,39.55
2022-08-15T09:39:40.960Z,39.38
2022-08-15T09:41:12.160Z,39.33
2022-08-15T09:42:33.214Z,39.14
2022-08-15T09:43:38.662Z,39.03
2022-08-15T09:44:39.118Z,39.01
2022-08-15T09:45:46.277Z,38.89
2022-08-15T09:47:13.042Z,38.86
2022-08-15T09:48:04.931Z,38.83
2022-08-15T09:49:04.670Z,38.83
2022-08-15T09:50:33.181Z,38.87
2022-08-15T09:51:40.051Z,38.83
2022-08-15T09:52:46.318Z,38.75
2022-08-15T09:54:01.832Z,38.78
2022-08-15T09:55:11.362Z,38.64
2022-08-15T09:56:08.840Z,38.59
2022-08-15T09:57:32.376Z,38.61
2022-08-15T09:58:27.469Z,38.62
2022-08-15T09:59:22.266Z,38.64
2022-08-15T10:00:20.255Z,38.70
2022-08-15T10:01:31.091Z,38.67
2022-08-15T10:02:37.237Z,38.61
2022-08-15T10:03:48.362Z,38.53
2022-08-15T10:04:56.770Z,38.36
2022-08-15T10:06:00.739Z,38.37
2022-08-15T10:07:13.247Z,38.26
2022-08-15T10:08:06.967Z,38.24
2022-08-15T10:09:05.869Z,38.25
2022-08-15T10:10:03.744Z,38.25
2022-08-15T10:10:57.315Z,38.31
2022-08-15T10:11:51.654Z,38.28
2022-08-15T10:13:10.354Z,38.27
2022-08-15T10:14:14.159Z,38.27
2022-08-15T10:15:07.960Z,38.18
2022-08-15T10:15:58.849Z,38.07
2022-08-15T10:17:00.566Z,38.05
2022-08-15T10:17:57.983Z,37.96
2022-08-15T10:18:50.343Z,37.95
2022-08-15T10:20:01.186Z,37.95
2022-08-15T10:20:57.646Z,37.87
2022-08-15T10:21:48.547Z,37.76
2022-08-15T10:22:45.488Z,37.73
2022-08-15T10:23:45.272Z,37.77
2022-08-15T10:25:19.009Z,37.74
2022-08-15T10:26:38.383Z,37.61
2022-08-15T10:27:31.897Z,37.55
2022-08-15T10:28:37.866Z,37.48
2022-08-15T10:29:35.966Z,37.39
2022-08-15T10:30:45.646Z,37.21
2022-08-15T10:31:52.096Z,37.21
2022-08-15T10:32:58.168Z,37.12
2022-08-15T10:33:58.362Z,37.09
2022-08-15T10:34:57.489Z,36.96
2022-08-15T10:35:51.074Z,36.84
2022-08-15T10:36:45.601Z,36.74
2022-08-15T10:38:00.933Z,36.59
2022-08-15T10:39:31.001Z,36.60
2022-08-15T10:40:45.791Z,36.59
2022-08-15T10:41:49.661Z,36.59
2022-08-15T11:12:14.360Z,33.20
2022-08-15T11:13:14.421Z,33.62
2022-08-15T11:14:22.378Z,33.01
2022-08-15T11:16:37.813Z,32.50
2022-08-15T11:17:46.160Z,32.66
2022-08-15T11:18:58.252Z,32.40
2022-08-15T11:20:07.919Z,32.08
2022-08-15T11:22:36.311Z,31.99
2022-08-15T11:23:32.806Z,32.28
2022-08-15T11:24:32.134Z,32.62
2022-08-15T11:25:30.419Z,32.90
2022-08-15T11:26:31.168Z,32.96
2022-08-15T11:27:42.119Z,33.13
2022-08-15T11:29:19.887Z,33.28
2022-08-15T11:30:23.061Z,33.28
2022-08-15T11:31:18.666Z,33.44
2022-08-15T11:32:25.091Z,33.41
2022-08-15T11:33:26.812Z,33.37
2022-08-15T11:34:37.326Z,33.31
2022-08-15T11:35:32.605Z,33.32
2022-08-15T11:36:29.438Z,33.51
2022-08-15T11:37:25.590Z,33.49
2022-08-15T11:38:20.663Z,33.51
2022-08-15T11:39:24.130Z,33.18
2022-08-15T11:40:28.589Z,33.15
2022-08-15T11:41:38.161Z,32.74
2022-08-15T11:42:57.897Z,32.28
2022-08-15T11:45:19.956Z,31.89
2022-08-15T11:46:29.950Z,31.67
2022-08-15T11:47:24.668Z,31.92
2022-08-15T11:48:35.378Z,32.22
2022-08-15T11:49:32.792Z,32.39
2022-08-15T11:50:31.996Z,32.39
2022-08-15T11:51:32.182Z,31.98
2022-08-15T11:52:38.947Z,32.09
2022-08-15T12:35:24.911Z,31.13
2022-08-15T12:37:05.859Z,31.41
2022-08-15T12:37:40.065Z,31.82
2022-08-15T12:38:43.314Z,32.17
2022-08-15T12:39:40.654Z,32.21
2022-08-15T12:41:00.904Z,32.33
2022-08-15T12:43:02.190Z,32.30
2022-08-15T12:43:53.975Z,32.55
2022-08-15T12:44:48.551Z,32.63
2022-08-15T12:45:42.195Z,32.85
2022-08-15T12:46:37.232Z,33.10
2022-08-15T12:47:31.503Z,33.19
2022-08-15T12:48:57.442Z,33.29
2022-08-15T12:49:52.587Z,33.30
2022-08-15T12:50:46.668Z,33.24
2022-08-15T12:51:37.430Z,33.32
2022-08-15T12:52:37.161Z,33.38
2022-08-15T12:53:28.030Z,33.44
2022-08-15T12:54:23.963Z,33.37
2022-08-15T12:56:30.508Z,33.39
2022-08-15T12:57:22.638Z,33.09
2022-08-15T12:58:17.206Z,33.12
2022-08-15T12:59:13.328Z,32.79
2022-08-15T13:00:34.501Z,32.28
2022-08-15T13:01:25.607Z,32.29
2022-08-15T13:02:48.430Z,32.33
2022-08-15T13:03:39.207Z,32.44
2022-08-15T13:04:57.052Z,32.35
2022-08-15T13:06:02.345Z,32.20
2022-08-15T13:07:03.242Z,32.13
2022-08-15T13:08:24.382Z,32.09
2022-08-15T13:09:17.154Z,32.06
2022-08-15T13:10:56.400Z,31.93
2022-08-15T13:11:32.452Z,31.93
2022-08-15T13:12:23.669Z,32.04
2022-08-15T13:13:15.694Z,32.05
2022-08-15T13:14:09.500Z,31.42
2022-08-15T13:15:00.336Z,31.33
2022-08-15T13:15:51.824Z,31.25
2022-08-15T13:17:10.316Z,31.42
2022-08-15T13:18:05.762Z,31.63
2022-08-15T13:19:10.045Z,31.76
2022-08-15T13:20:39.254Z,31.87
2022-08-15T13:21:58.440Z,31.76
2022-08-15T13:23:25.808Z,31.32
2022-08-15T13:24:17.735Z,31.25
2022-08-15T13:25:16.118Z,31.43
2022-08-15T13:26:27.967Z,31.50
2022-08-15T13:27:21.413Z,31.45
2022-08-15T13:28:12.200Z,31.49
2022-08-15T13:29:04.059Z,31.52
2022-08-15T13:29:55.338Z,31.58
2022-08-15T13:31:01.907Z,31.67
2022-08-15T13:31:57.661Z,31.59
2022-08-15T13:32:49.324Z,31.28
2022-08-15T13:33:43.114Z,31.46
2022-08-15T13:34:45.568Z,31.25
2022-08-15T13:35:59.654Z,31.21
2022-08-15T13:36:56.429Z,31.06
2022-08-15T13:38:06.787Z,31.18
2022-08-15T13:39:29.375Z,31.35
2022-08-15T13:40:28.673Z,31.35
2022-08-15T13:41:20.402Z,31.29
2022-08-15T13:42:36.985Z,31.34
2022-08-15T13:43:57.874Z,31.47
2022-08-15T13:44:49.633Z,31.59
2022-08-15T13:45:58.854Z,31.64
2022-08-15T13:47:54.086Z,31.78
2022-08-15T13:49:05.861Z,31.84
2022-08-15T13:50:13.511Z,32.07
2022-08-15T13:52:24.247Z,32.04
2022-08-15T13:52:46.649Z,32.06
2022-08-15T13:54:33.576Z,32.07
2022-08-15T13:55:01.385Z,32.10
2022-08-15T13:55:53.392Z,32.10
2022-08-15T13:56:52.525Z,32.05
2022-08-15T13:58:06.235Z,31.96
2022-08-15T13:58:58.636Z,31.98
2022-08-15T13:59:58.042Z,32.00
2022-08-15T14:00:57.506Z,31.94
2022-08-15T14:01:55.027Z,31.84
2022-08-15T14:02:47.521Z,31.78
2022-08-15T14:03:40.544Z,31.71
2022-08-15T14:04:34.273Z,31.69
2022-08-15T14:05:26.967Z,31.68
2022-08-15T14:06:23.134Z,31.66
2022-08-15T14:07:24.435Z,31.65
2022-08-15T14:08:28.160Z,31.71
2022-08-15T14:10:04.322Z,31.73
2022-08-15T14:11:00.000Z,31.77
2022-08-15T14:11:55.124Z,31.67
2022-08-15T14:12:48.156Z,31.64
2022-08-15T14:13:41.312Z,31.57
2022-08-15T14:14:36.832Z,31.38
2022-08-15T14:15:33.806Z,31.41
2022-08-15T14:17:00.183Z,31.45
2022-08-15T14:18:02.103Z,31.48
2022-08-15T14:19:04.114Z,31.51
2022-08-15T14:20:02.295Z,31.41
2022-08-15T14:20:55.387Z,31.47
2022-08-15T14:22:16.218Z,31.45
2022-08-15T14:23:10.353Z,31.45
2022-08-15T14:24:02.554Z,31.47
2022-08-15T14:25:28.652Z,31.45
2022-08-15T14:27:09.410Z,31.51
2022-08-15T14:29:01.909Z,31.52
2022-08-15T14:29:48.700Z,31.56
2022-08-15T14:30:40.300Z,31.55
2022-08-15T14:31:54.557Z,31.57
2022-08-15T14:32:51.186Z,31.51
2022-08-15T14:35:10.067Z,31.29
2022-08-15T14:36:10.941Z,31.09
2022-08-15T14:37:02.574Z,31.02
2022-08-15T14:38:21.466Z,30.95
2022-08-15T14:39:13.474Z,31.11
2022-08-15T14:40:06.966Z,31.13
2022-08-15T14:40:59.543Z,30.97
2022-08-15T14:42:14.117Z,30.91
2022-08-15T14:43:21.960Z,30.94
2022-08-15T14:44:46.812Z,30.83
2022-08-15T14:46:33.639Z,30.88
2022-08-15T14:46:38.763Z,30.74
2022-08-15T14:47:42.352Z,30.82
2022-08-15T14:48:47.008Z,30.87
2022-08-15T14:50:53.113Z,30.85
2022-08-15T14:52:11.278Z,30.92
2022-08-15T14:52:24.237Z,30.90
2022-08-15T14:53:15.870Z,30.77
2022-08-15T14:54:12.406Z,30.88
2022-08-15T14:55:23.148Z,30.84
2022-08-15T14:56:16.251Z,30.83
2022-08-15T14:57:27.112Z,30.85
2022-08-15T14:58:30.486Z,30.89
2022-08-15T14:59:31.769Z,30.77
2022-08-15T15:00:40.252Z,30.69
2022-08-15T15:01:33.958Z,30.62
2022-08-15T15:02:31.874Z,30.50
2022-08-15T15:03:24.953Z,30.52
2022-08-15T15:04:22.184Z,30.52
2022-08-15T15:05:15.860Z,30.50
2022-08-15T15:06:24.230Z,30.40
2022-08-15T15:07:22.591Z,30.42
2022-08-15T15:08:20.099Z,30.50
2022-08-15T15:09:15.170Z,30.56
2022-08-15T15:10:09.391Z,30.73
2022-08-15T15:11:32.464Z,30.86
2022-08-15T15:12:27.488Z,30.99
2022-08-15T15:13:18.837Z,30.99
2022-08-15T15:14:10.129Z,31.02
2022-08-15T15:15:09.019Z,31.15
2022-08-15T15:16:40.932Z,31.09
2022-08-15T15:17:12.856Z,31.12
2022-08-15T15:18:34.192Z,31.01
2022-08-15T15:19:39.624Z,30.96
2022-08-15T15:20:46.545Z,30.89
2022-08-15T15:21:38.387Z,30.69
2022-08-15T15:22:30.041Z,30.76
2022-08-15T15:23:20.666Z,30.74
2022-08-15T15:24:15.741Z,30.66
2022-08-15T15:25:07.208Z,30.74
2022-08-15T15:25:59.107Z,30.60
2022-08-15T15:26:55.277Z,30.62
2022-08-15T15:27:58.298Z,30.60
2022-08-15T15:28:50.368Z,30.73
2022-08-15T15:29:47.032Z,30.10
2022-08-15T15:30:40.554Z,29.93
2022-08-15T15:31:55.085Z,30.06
2022-08-15T15:32:47.680Z,29.79
2022-08-15T15:33:41.382Z,29.32
2022-08-15T15:34:34.628Z,29.03
2022-08-15T15:35:27.442Z,29.43
2022-08-15T15:36:45.532Z,29.20
2022-08-15T15:37:37.051Z,29.23
2022-08-15T15:38:36.402Z,29.09
2022-08-15T15:39:45.703Z,28.65
2022-08-15T15:40:37.689Z,28.33
2022-08-15T15:41:29.381Z,28.77
2022-08-15T15:42:32.241Z,28.22
2022-08-15T15:43:28.107Z,28.68
2022-08-15T15:44:26.056Z,28.21
2022-08-15T15:45:16.511Z,27.85
2022-08-15T15:46:10.058Z,27.90
2022-08-15T15:47:04.796Z,28.37
2022-08-15T15:48:02.889Z,28.41
2022-08-15T15:49:05.761Z,28.22
2022-08-15T15:49:56.728Z,28.33
2022-08-15T15:50:49.733Z,28.05
2022-08-15T15:51:40.351Z,28.14
2022-08-15T15:52:32.529Z,28.03
2022-08-15T15:53:27.175Z,28.28
2022-08-15T15:54:35.822Z,28.02
2022-08-15T15:55:29.441Z,28.17
2022-08-15T15:56:37.583Z,28.22
2022-08-15T15:58:03.002Z,28.02
2022-08-15T15:59:01.727Z,28.21
2022-08-15T15:59:59.288Z,28.36
2022-08-15T16:02:43.313Z,27.84
2022-08-15T16:02:43.856Z,27.80
2022-08-15T16:03:36.425Z,27.75
2022-08-15T16:04:27.184Z,27.82
2022-08-15T16:05:23.499Z,28.06
2022-08-15T16:07:02.106Z,27.95
2022-08-15T16:07:55.954Z,28.03
2022-08-15T16:08:56.209Z,28.29
2022-08-15T16:09:47.396Z,27.84
2022-08-15T16:11:08.014Z,28.17
2022-08-15T16:12:58.853Z,28.04
2022-08-15T16:13:23.620Z,28.23
2022-08-15T16:14:19.425Z,28.39
2022-08-15T16:15:43.140Z,28.20
2022-08-15T16:16:42.417Z,28.31
2022-08-15T16:17:56.534Z,28.52
2022-08-15T16:18:56.194Z,27.91
2022-08-15T16:20:28.448Z,28.18
2022-08-15T16:21:28.700Z,28.18
2022-08-15T16:22:36.793Z,28.16
2022-08-15T16:23:52.215Z,28.42
2022-08-15T16:24:53.827Z,28.40
2022-08-15T16:25:55.939Z,28.07
2022-08-15T16:26:55.017Z,28.18
2022-08-15T16:28:21.854Z,28.18
2022-08-15T16:29:20.017Z,28.33
2022-08-15T16:30:30.042Z,28.23
2022-08-15T16:31:29.758Z,27.86
2022-08-15T16:32:32.056Z,28.00
2022-08-15T16:33:34.046Z,28.18